createdAt,value
2023-05-13T00:01:38.915Z,13.00
2023-05-13T00:04:07.422Z,13.07
2023-05-13T00:06:35.916Z,12.13
2023-05-13T00:09:04.380Z,11.93
2023-05-13T00:11:33.884Z,11.53
2023-05-13T00:14:02.064Z,11.37
2023-05-13T00:16:30.306Z,11.07
2023-05-13T00:18:58.503Z,10.83
2023-05-13T00:21:26.614Z,11.50
2023-05-13T00:23:54.749Z,11.00
2023-05-13T00:26:22.947Z,10.57
2023-05-13T00:28:52.456Z,10.43
2023-05-13T00:31:20.846Z,9.73
2023-05-13T00:33:49.067Z,9.47
2023-05-13T00:36:17.419Z,9.90
2023-05-13T00:38:45.517Z,9.05
2023-05-13T00:41:13.896Z,9.40
2023-05-13T00:43:42.083Z,9.77
2023-05-13T00:46:11.645Z,9.77
2023-05-13T00:48:40.260Z,10.10
2023-05-13T00:51:08.604Z,9.70
2023-05-13T00:53:36.786Z,10.13
2023-05-13T00:56:05.073Z,9.90
2023-05-13T00:58:33.309Z,9.37
2023-05-13T01:01:06.961Z,9.97
2023-05-13T01:03:40.773Z,9.50
2023-05-13T01:06:11.032Z,9.57
2023-05-13T01:08:42.992Z,9.53
2023-05-13T01:11:13.113Z,9.33
2023-05-13T01:13:43.583Z,8.80
2023-05-13T01:16:14.654Z,9.30
2023-05-13T01:18:46.032Z,9.15
2023-05-13T01:21:14.324Z,8.57
2023-05-13T01:23:43.837Z,9.53
2023-05-13T01:26:11.979Z,8.10
2023-05-13T01:28:40.260Z,8.47
2023-05-13T01:31:10.859Z,7.63
2023-05-13T01:33:39.726Z,7.20
2023-05-13T01:36:08.642Z,7.67
2023-05-13T01:38:37.441Z,6.67
2023-05-13T01:41:07.284Z,6.77
2023-05-13T01:43:35.475Z,7.33
2023-05-13T01:46:03.806Z,7.77
2023-05-13T01:48:31.935Z,6.83
2023-05-13T01:51:00.152Z,6.67
2023-05-13T01:53:28.303Z,6.13
2023-05-13T01:55:56.730Z,6.00
2023-05-13T01:58:26.208Z,5.77
2023-05-13T02:00:54.400Z,6.13
2023-05-13T02:03:22.709Z,6.33
2023-05-13T02:05:50.949Z,6.30
2023-05-13T02:08:19.211Z,6.50
2023-05-13T02:10:47.608Z,6.93
2023-05-13T02:13:15.809Z,6.57
2023-05-13T02:15:45.314Z,6.47
2023-05-13T02:18:13.556Z,6.73
2023-05-13T02:20:41.724Z,6.60
2023-05-13T02:23:09.920Z,7.17
2023-05-13T02:25:38.088Z,7.40
2023-05-13T02:28:06.453Z,7.57
2023-05-13T02:30:34.622Z,8.13
2023-05-13T02:33:04.422Z,7.23
2023-05-13T02:35:32.572Z,7.80
2023-05-13T02:38:00.688Z,8.10
2023-05-13T02:40:28.871Z,7.90
2023-05-13T02:42:57.040Z,7.90
2023-05-13T02:45:25.442Z,7.57
2023-05-13T02:47:53.635Z,8.33
2023-05-13T02:50:23.478Z,7.77
2023-05-13T02:52:51.843Z,8.90
2023-05-13T02:55:20.194Z,8.53
2023-05-13T02:57:48.376Z,8.60
2023-05-13T03:00:17.133Z,8.40
2023-05-13T03:02:45.337Z,8.60
2023-05-13T03:05:13.615Z,8.37
2023-05-13T03:07:43.306Z,9.20
2023-05-13T03:10:11.631Z,8.50
2023-05-13T03:12:39.770Z,10.23
2023-05-13T03:15:08.486Z,9.53
2023-05-13T03:17:36.706Z,9.50
2023-05-13T03:20:05.126Z,10.13
2023-05-13T03:22:33.360Z,10.87
2023-05-13T03:25:04.657Z,10.77
2023-05-13T03:27:32.844Z,12.03
2023-05-13T03:30:01.036Z,11.90
2023-05-13T03:32:30.601Z,11.63
2023-05-13T03:35:00.755Z,12.10
2023-05-13T03:37:28.950Z,13.57
2023-05-13T03:39:57.088Z,13.10
2023-05-13T03:42:26.666Z,14.17
2023-05-13T03:44:56.911Z,13.63
2023-05-13T03:47:25.294Z,13.63
2023-05-13T03:49:53.497Z,14.10
2023-05-13T03:52:21.630Z,14.50
2023-05-13T03:54:49.771Z,14.13
2023-05-13T03:57:17.916Z,15.13
2023-05-13T03:59:47.466Z,15.47
2023-05-13T04:02:15.626Z,15.53
2023-05-13T04:04:43.848Z,15.67
2023-05-13T04:07:12.024Z,14.80
2023-05-13T04:09:40.663Z,15.80
2023-05-13T04:12:08.996Z,16.33
2023-05-13T04:14:37.561Z,16.00
2023-05-13T04:17:07.435Z,15.63
2023-05-13T04:19:35.741Z,16.33
2023-05-13T04:22:03.903Z,16.10
2023-05-13T04:24:32.030Z,15.70
2023-05-13T04:27:01.480Z,15.97
2023-05-13T04:29:29.793Z,16.07
2023-05-13T04:31:58.035Z,15.97
2023-05-13T04:34:27.615Z,16.10
2023-05-13T04:36:55.796Z,16.23
2023-05-13T04:39:24.004Z,15.97
2023-05-13T04:41:52.189Z,15.97
2023-05-13T04:44:20.352Z,15.40
2023-05-13T04:46:48.640Z,15.90
2023-05-13T04:49:16.943Z,16.40
2023-05-13T04:51:46.952Z,16.03
2023-05-13T04:54:15.691Z,15.63
2023-05-13T04:56:43.894Z,16.10
2023-05-13T04:59:12.071Z,14.90
2023-05-13T05:01:40.283Z,14.27
2023-05-13T05:04:08.593Z,15.27
2023-05-13T05:06:36.812Z,14.67
2023-05-13T05:09:06.796Z,14.77
2023-05-13T05:11:34.943Z,14.07
2023-05-13T05:14:03.189Z,14.47
2023-05-13T05:16:31.350Z,14.73
2023-05-13T05:18:59.545Z,14.93
2023-05-13T05:21:27.879Z,15.37
2023-05-13T05:23:56.855Z,14.93
2023-05-13T05:26:26.738Z,14.87
2023-05-13T05:28:55.073Z,14.33
2023-05-13T05:31:23.238Z,14.83
2023-05-13T05:33:51.514Z,14.20
2023-05-13T05:36:19.741Z,14.10
2023-05-13T05:38:48.002Z,13.90
2023-05-13T05:41:16.228Z,14.13
2023-05-13T05:43:45.852Z,13.87
2023-05-13T05:46:14.095Z,13.20
2023-05-13T05:48:42.314Z,13.37
2023-05-13T05:51:10.529Z,13.43
2023-05-13T05:53:41.022Z,13.30
2023-05-13T05:56:09.753Z,13.77
2023-05-13T05:58:38.005Z,13.13
2023-05-13T06:01:08.031Z,13.57
2023-05-13T06:03:36.345Z,12.97
2023-05-13T06:06:04.920Z,12.73
2023-05-13T06:08:33.112Z,12.57
2023-05-13T06:11:01.362Z,11.87
2023-05-13T06:13:29.619Z,12.10
2023-05-13T06:15:57.873Z,12.70
2023-05-13T06:18:27.556Z,12.30
2023-05-13T06:20:55.759Z,13.07
2023-05-13T06:23:23.942Z,12.47
2023-05-13T06:25:52.140Z,11.17
2023-05-13T06:28:20.656Z,11.20
2023-05-13T06:30:49.002Z,11.60
2023-05-13T06:33:17.223Z,11.00
2023-05-13T06:35:49.457Z,11.00
2023-05-13T06:38:18.607Z,11.53
2023-05-13T06:40:46.926Z,11.17
2023-05-13T06:43:16.379Z,11.27
2023-05-13T06:45:44.570Z,10.13
2023-05-13T06:48:12.996Z,10.73
2023-05-13T06:50:41.580Z,10.70
2023-05-13T06:53:12.557Z,10.43
2023-05-13T06:55:42.593Z,10.13
2023-05-13T06:58:11.066Z,10.50
2023-05-13T07:00:39.819Z,10.13
2023-05-13T07:03:08.552Z,9.60
2023-05-13T07:05:37.431Z,9.80
2023-05-13T07:08:06.917Z,9.40
2023-05-13T07:10:36.844Z,8.97
2023-05-13T07:13:05.057Z,8.97
2023-05-13T07:15:33.217Z,9.10
2023-05-13T07:18:01.489Z,9.50
2023-05-13T07:20:30.362Z,10.10
2023-05-13T07:22:58.667Z,9.50
2023-05-13T07:25:26.896Z,9.53
2023-05-13T07:27:56.427Z,9.83
2023-05-13T07:30:24.900Z,10.63
2023-05-13T07:32:54.086Z,10.00
2023-05-13T07:35:22.548Z,9.60
2023-05-13T07:37:50.949Z,9.23
2023-05-13T07:40:20.949Z,9.20
2023-05-13T07:42:49.557Z,9.23
2023-05-13T07:45:19.379Z,9.17
2023-05-13T07:47:47.677Z,8.90
2023-05-13T07:50:15.959Z,8.63
2023-05-13T07:52:44.355Z,9.40
2023-05-13T07:55:12.518Z,9.40
2023-05-13T07:57:40.795Z,8.23
2023-05-13T08:00:09.630Z,8.07
2023-05-13T08:02:40.150Z,8.20
2023-05-13T08:05:08.721Z,8.10
2023-05-13T08:07:37.084Z,7.70
2023-05-13T08:10:05.512Z,7.70
2023-05-13T08:12:33.716Z,8.20
2023-05-13T08:15:03.830Z,7.80
2023-05-13T08:17:32.118Z,7.13
2023-05-13T08:20:03.774Z,7.67
2023-05-13T08:22:32.219Z,7.27
2023-05-13T08:25:01.174Z,7.87
2023-05-13T08:27:29.380Z,7.50
2023-05-13T08:29:57.559Z,7.10
2023-05-13T08:32:25.803Z,7.03
2023-05-13T08:34:54.133Z,6.63
2023-05-13T08:37:23.642Z,6.80
2023-05-13T08:39:51.762Z,7.70
2023-05-13T08:42:22.876Z,6.83
2023-05-13T08:44:51.041Z,6.50
2023-05-13T08:47:26.229Z,6.60
2023-05-13T08:49:54.615Z,6.77
2023-05-13T08:52:24.300Z,7.13
2023-05-13T08:54:52.449Z,6.93
2023-05-13T08:57:20.769Z,6.93
2023-05-13T08:59:48.940Z,6.63
2023-05-13T09:02:17.244Z,6.67
2023-05-13T09:04:46.688Z,6.97
2023-05-13T09:07:14.916Z,6.30
2023-05-13T09:09:44.521Z,6.80
2023-05-13T09:12:12.851Z,7.27
2023-05-13T09:14:41.008Z,6.43
2023-05-13T09:17:10.320Z,6.22
2023-05-13T09:19:38.599Z,7.10
2023-05-13T09:22:06.847Z,6.80
2023-05-13T09:24:35.039Z,7.07
2023-05-13T09:27:04.548Z,6.37
2023-05-13T09:29:33.315Z,6.72
2023-05-13T09:32:03.061Z,6.45
2023-05-13T09:34:32.105Z,6.50
2023-05-13T09:37:01.415Z,7.30
2023-05-13T09:39:31.036Z,6.40
2023-05-13T09:42:04.297Z,6.60
2023-05-13T09:44:35.050Z,6.80
2023-05-13T09:47:03.625Z,6.70
2023-05-13T09:49:33.208Z,6.85
2023-05-13T09:52:01.383Z,6.35
2023-05-13T09:54:36.052Z,6.60
2023-05-13T09:57:04.668Z,5.70
2023-05-13T09:59:35.173Z,6.40
2023-05-13T10:02:05.945Z,7.05
2023-05-13T10:04:34.427Z,6.90
2023-05-13T10:07:04.183Z,6.20
2023-05-13T10:09:36.389Z,6.87
2023-05-13T10:12:04.980Z,6.13
2023-05-13T10:14:34.680Z,6.53
2023-05-13T10:17:02.874Z,7.88
2023-05-13T10:19:31.186Z,7.43
2023-05-13T10:21:59.833Z,6.97
2023-05-13T10:24:28.968Z,6.63
2023-05-13T10:26:58.065Z,7.00
2023-05-13T10:29:26.606Z,6.60
2023-05-13T10:31:57.494Z,7.13
2023-05-13T10:34:26.325Z,6.35
2023-05-13T10:37:01.791Z,6.87
2023-05-13T10:39:38.929Z,6.85
2023-05-13T10:42:28.847Z,7.72
2023-05-13T10:44:57.124Z,6.93
2023-05-13T10:47:27.067Z,7.88
2023-05-13T10:49:55.344Z,7.82
2023-05-13T10:52:23.564Z,7.68
2023-05-13T10:55:01.629Z,7.18
2023-05-13T10:57:30.983Z,7.53
2023-05-13T11:00:14.305Z,7.85
2023-05-13T11:02:44.089Z,7.10
2023-05-13T11:05:20.651Z,6.90
2023-05-13T11:07:56.300Z,6.50
2023-05-13T11:10:29.949Z,6.57
2023-05-13T11:13:16.644Z,6.88
2023-05-13T11:15:46.031Z,7.40
2023-05-13T11:18:15.642Z,6.93
2023-05-13T11:20:52.570Z,7.40
2023-05-13T11:23:21.645Z,6.47
2023-05-13T11:26:12.179Z,6.93
2023-05-13T11:28:57.619Z,7.28
2023-05-13T11:31:26.153Z,7.00
2023-05-13T11:34:15.111Z,6.80
2023-05-13T11:36:46.192Z,6.88
2023-05-13T11:39:16.666Z,6.88
2023-05-13T11:41:46.580Z,6.72
2023-05-13T11:44:15.445Z,6.80
2023-05-13T11:46:53.418Z,5.68
2023-05-13T11:49:45.354Z,5.88
2023-05-13T11:52:15.615Z,6.18
2023-05-13T11:54:44.525Z,5.80
2023-05-13T11:57:16.639Z,6.13
2023-05-13T11:59:50.925Z,6.13
2023-05-13T12:02:22.095Z,6.18
2023-05-13T12:04:50.339Z,6.13
2023-05-13T12:07:22.675Z,5.90
2023-05-13T12:09:51.211Z,6.40
2023-05-13T12:12:20.337Z,6.70
2023-05-13T12:14:50.277Z,5.90
2023-05-13T12:17:19.153Z,6.47
2023-05-13T12:20:06.423Z,6.50
2023-05-13T12:22:36.466Z,6.28
2023-05-13T12:25:24.770Z,7.40
2023-05-13T12:27:53.521Z,6.22
2023-05-13T12:30:21.689Z,6.40
2023-05-13T12:32:49.881Z,5.95
2023-05-13T12:35:18.179Z,6.03
2023-05-13T12:37:59.820Z,6.57
2023-05-13T12:40:28.302Z,6.63
2023-05-13T12:42:58.801Z,5.75
2023-05-13T12:45:31.335Z,6.40
2023-05-13T12:47:59.945Z,6.07
2023-05-13T12:50:28.963Z,5.43
2023-05-13T12:52:59.991Z,5.30
2023-05-13T12:55:28.295Z,6.10
2023-05-13T12:57:57.443Z,6.13
2023-05-13T13:00:26.533Z,6.72
2023-05-13T13:02:54.917Z,5.80
2023-05-13T13:05:23.592Z,6.45
2023-05-13T13:07:52.004Z,6.03
2023-05-13T13:10:22.672Z,6.25
2023-05-13T13:12:50.980Z,4.88
2023-05-13T13:15:19.490Z,5.75
2023-05-13T13:17:47.783Z,6.07
2023-05-13T13:20:16.029Z,5.88
2023-05-13T13:22:44.237Z,5.85
2023-05-13T13:25:12.434Z,6.30
2023-05-13T13:27:41.989Z,5.70
2023-05-13T13:30:10.507Z,5.57
2023-05-13T13:32:38.687Z,6.10
2023-05-13T13:35:07.175Z,5.70
2023-05-13T13:37:36.177Z,6.13
2023-05-13T13:40:05.744Z,5.88
2023-05-13T13:45:11.310Z,5.80
2023-05-13T13:47:39.558Z,6.43
2023-05-13T13:50:08.306Z,5.50
2023-05-13T13:52:36.528Z,5.70
2023-05-13T13:55:04.697Z,5.90
2023-05-13T13:57:32.856Z,5.82
2023-05-13T14:00:01.152Z,6.32
2023-05-13T14:02:30.747Z,5.90
2023-05-13T14:04:58.996Z,6.75
2023-05-13T14:07:27.323Z,5.82
2023-05-13T14:09:55.499Z,5.75
2023-05-13T14:12:23.696Z,5.72
2023-05-13T14:14:51.825Z,6.00
2023-05-13T14:17:20.907Z,6.30
2023-05-13T14:19:51.763Z,5.63
2023-05-13T14:22:21.625Z,6.15
2023-05-13T14:24:49.737Z,6.32
2023-05-13T14:27:17.931Z,5.90
2023-05-13T14:29:47.115Z,6.28
2023-05-13T14:32:15.370Z,6.30
2023-05-13T14:34:43.540Z,6.10
2023-05-13T14:37:13.120Z,6.03
2023-05-13T14:39:41.306Z,6.68
2023-05-13T14:42:11.499Z,6.63
2023-05-13T14:44:41.311Z,6.82
2023-05-13T14:47:10.108Z,6.20
2023-05-13T14:49:38.442Z,6.80
2023-05-13T14:52:06.878Z,6.65
2023-05-13T14:54:37.895Z,6.57
2023-05-13T14:57:07.317Z,7.10
2023-05-13T14:59:35.749Z,6.55
2023-05-13T15:02:04.452Z,7.03
2023-05-13T15:04:32.629Z,6.80
2023-05-13T15:07:00.902Z,6.53
2023-05-13T15:09:29.013Z,7.43
2023-05-13T15:11:58.605Z,7.25
2023-05-13T15:14:26.772Z,7.80
2023-05-13T15:16:54.976Z,7.28
2023-05-13T15:19:23.199Z,7.57
2023-05-13T15:21:51.502Z,7.60
2023-05-13T15:24:19.781Z,7.20
2023-05-13T15:26:50.128Z,7.18
2023-05-13T15:29:19.721Z,6.78
2023-05-13T15:31:50.851Z,7.22
2023-05-13T15:34:19.005Z,7.35
2023-05-13T15:36:47.292Z,6.85
2023-05-13T15:39:16.474Z,6.88
2023-05-13T15:41:44.955Z,6.60
2023-05-13T15:44:13.114Z,6.65
2023-05-13T15:46:43.070Z,7.35
2023-05-13T15:49:11.444Z,6.88
2023-05-13T15:51:39.664Z,6.85
2023-05-13T15:54:07.854Z,7.13
2023-05-13T15:56:36.159Z,7.25
2023-05-13T15:59:04.373Z,7.07
2023-05-13T16:01:32.638Z,6.88
2023-05-13T16:04:02.234Z,7.53
2023-05-13T16:06:30.862Z,7.35
2023-05-13T16:09:00.883Z,7.57
2023-05-13T16:11:29.526Z,7.40
2023-05-13T16:13:57.710Z,8.45
2023-05-13T16:16:25.977Z,7.85
2023-05-13T16:18:54.293Z,8.20
2023-05-13T16:21:24.135Z,8.13
2023-05-13T16:23:52.319Z,7.72
2023-05-13T16:26:21.423Z,8.50
2023-05-13T16:28:49.651Z,8.30
2023-05-13T16:31:17.850Z,8.23
2023-05-13T16:33:46.116Z,8.25
2023-05-13T16:36:14.548Z,7.68
2023-05-13T16:38:44.118Z,7.82
2023-05-13T16:41:12.397Z,7.78
2023-05-13T16:43:40.878Z,8.63
2023-05-13T16:46:09.031Z,8.13
2023-05-13T16:48:37.261Z,7.53
2023-05-13T16:51:05.649Z,7.68
2023-05-13T16:53:34.093Z,7.70
2023-05-13T16:56:03.734Z,7.88
2023-05-13T16:58:31.949Z,7.53
2023-05-13T17:01:01.009Z,7.45
2023-05-13T17:03:29.413Z,8.32
2023-05-13T17:05:57.901Z,8.02
2023-05-13T17:08:26.064Z,9.02
2023-05-13T17:10:54.227Z,10.07
2023-05-13T17:13:23.692Z,7.95
2023-05-13T17:15:51.914Z,8.18
2023-05-13T17:18:20.066Z,8.45
2023-05-13T17:20:48.248Z,8.73
2023-05-13T17:23:17.277Z,9.15
2023-05-13T17:25:45.574Z,8.23
2023-05-13T17:28:13.726Z,8.50
2023-05-13T17:30:43.320Z,7.78
2023-05-13T17:33:11.557Z,9.43
2023-05-13T17:35:39.821Z,8.30
2023-05-13T17:38:07.999Z,8.32
2023-05-13T17:40:36.491Z,8.40
2023-05-13T17:43:04.719Z,8.45
2023-05-13T17:45:32.999Z,9.38
2023-05-13T17:48:02.780Z,8.85
2023-05-13T17:50:32.048Z,8.60
2023-05-13T17:53:00.727Z,8.23
2023-05-13T17:55:28.930Z,9.35
2023-05-13T17:57:57.065Z,8.95
2023-05-13T18:00:25.932Z,9.02
2023-05-13T18:02:54.188Z,9.15
2023-05-13T18:05:24.025Z,9.75
2023-05-13T18:07:52.365Z,9.37
2023-05-13T18:10:20.865Z,10.05
2023-05-13T18:12:51.645Z,10.07
2023-05-13T18:15:19.973Z,8.60
2023-05-13T18:17:48.358Z,9.68
2023-05-13T18:20:16.570Z,9.80
2023-05-13T18:22:46.085Z,9.20
2023-05-13T18:25:14.274Z,9.82
2023-05-13T18:27:42.470Z,9.13
2023-05-13T18:30:11.174Z,8.75
2023-05-13T18:32:39.390Z,8.65
2023-05-13T18:35:07.806Z,8.57
2023-05-13T18:37:36.041Z,9.55
2023-05-13T18:40:06.018Z,8.98
2023-05-13T18:42:34.366Z,8.90
2023-05-13T18:45:02.519Z,9.02
2023-05-13T18:47:30.737Z,8.75
2023-05-13T18:49:58.905Z,9.45
2023-05-13T18:52:27.137Z,9.40
2023-05-13T18:54:55.358Z,9.30
2023-05-13T18:57:24.913Z,9.93
2023-05-13T18:59:53.167Z,9.67
2023-05-13T19:02:21.691Z,9.73
2023-05-13T19:04:49.943Z,10.40
2023-05-13T19:07:18.148Z,9.45
2023-05-13T19:09:47.885Z,9.52
2023-05-13T19:12:16.099Z,9.68
2023-05-13T19:14:45.557Z,9.60
2023-05-13T19:17:13.989Z,10.37
2023-05-13T19:19:43.033Z,9.93
2023-05-13T19:22:11.199Z,10.70
2023-05-13T19:24:39.363Z,10.52
2023-05-13T19:27:07.586Z,10.07
2023-05-13T19:29:35.905Z,9.85
2023-05-13T19:32:06.190Z,10.73
2023-05-13T19:34:34.401Z,10.93
2023-05-13T19:37:02.584Z,10.40
2023-05-13T19:39:30.811Z,10.30
2023-05-13T19:41:59.004Z,10.50
2023-05-13T19:44:28.527Z,11.87
2023-05-13T19:46:56.820Z,12.05
2023-05-13T19:49:26.357Z,12.63
2023-05-13T19:51:54.630Z,12.60
2023-05-13T19:54:22.839Z,10.97
2023-05-13T19:56:50.987Z,11.50
2023-05-13T19:59:19.156Z,11.10
2023-05-13T20:01:47.354Z,11.77
2023-05-13T20:04:16.417Z,11.80
2023-05-13T20:06:46.008Z,12.13
2023-05-13T20:09:14.490Z,12.90
2023-05-13T20:11:42.640Z,12.30
2023-05-13T20:14:12.282Z,12.80
2023-05-13T20:16:40.654Z,12.40
2023-05-13T20:19:09.758Z,12.97
2023-05-13T20:21:38.146Z,13.23
2023-05-13T20:24:08.619Z,13.17
2023-05-13T20:26:36.838Z,12.73
2023-05-13T20:29:05.557Z,12.60
2023-05-13T20:31:33.805Z,13.60
2023-05-13T20:34:03.281Z,13.10
2023-05-13T20:36:32.578Z,13.33
2023-05-13T20:39:00.791Z,13.13
2023-05-13T20:41:30.299Z,13.00
2023-05-13T20:43:58.497Z,13.33
2023-05-13T20:46:26.739Z,14.03
2023-05-13T20:48:54.969Z,13.77
2023-05-13T20:51:23.250Z,14.50
2023-05-13T20:53:51.509Z,14.17
2023-05-13T20:56:19.701Z,13.67
2023-05-13T20:58:49.234Z,16.60
2023-05-13T21:01:17.430Z,16.03
2023-05-13T21:03:46.249Z,17.17
2023-05-13T21:06:14.986Z,14.93
2023-05-13T21:08:44.161Z,14.97
2023-05-13T21:11:12.371Z,15.53
2023-05-13T21:13:40.535Z,15.17
2023-05-13T21:16:10.243Z,19.20
2023-05-13T21:18:38.560Z,14.87
2023-05-13T21:21:08.661Z,14.00
2023-05-13T21:23:37.084Z,15.10
2023-05-13T21:26:06.330Z,17.43
2023-05-13T21:28:34.545Z,16.03
2023-05-13T21:31:02.844Z,14.57
2023-05-13T21:33:32.518Z,14.80
2023-05-13T21:36:00.742Z,14.93
2023-05-13T21:38:29.019Z,14.30
2023-05-13T21:40:57.231Z,15.73
2023-05-13T21:43:25.399Z,15.20
2023-05-13T21:45:53.538Z,15.20
2023-05-13T21:48:21.742Z,15.60
2023-05-13T21:50:51.265Z,16.30
2023-05-13T21:53:19.535Z,16.13
2023-05-13T21:55:47.665Z,14.97
2023-05-13T21:58:16.355Z,16.07
2023-05-13T22:00:44.598Z,15.60
2023-05-13T22:03:12.822Z,15.80
2023-05-13T22:05:44.084Z,16.63
2023-05-13T22:08:13.929Z,16.17
2023-05-13T22:10:42.022Z,16.67
2023-05-13T22:13:10.250Z,17.63
2023-05-13T22:15:38.448Z,16.63
2023-05-13T22:18:06.748Z,17.13
2023-05-13T22:20:35.040Z,16.60
2023-05-13T22:23:03.242Z,16.80
2023-05-13T22:25:32.903Z,15.97
2023-05-13T22:28:01.120Z,16.60
2023-05-13T22:30:29.370Z,16.07
2023-05-13T22:32:57.591Z,15.77
2023-05-13T22:35:25.777Z,16.47
2023-05-13T22:37:53.877Z,15.87
2023-05-13T22:40:22.365Z,15.80
2023-05-13T22:42:52.068Z,16.50
2023-05-13T22:45:20.289Z,14.93
2023-05-13T22:47:49.211Z,15.60
2023-05-13T22:50:17.417Z,15.60
2023-05-13T22:52:45.548Z,16.17
2023-05-13T22:55:13.779Z,15.63
2023-05-13T22:57:42.035Z,16.97
2023-05-13T23:00:12.663Z,15.63
2023-05-13T23:02:40.872Z,15.83
2023-05-13T23:05:10.005Z,15.47
2023-05-13T23:07:38.204Z,15.10
2023-05-13T23:10:06.959Z,15.73
2023-05-13T23:12:35.135Z,15.67
2023-05-13T23:15:04.045Z,15.50
2023-05-13T23:17:33.671Z,15.00
2023-05-13T23:20:02.018Z,16.30
2023-05-13T23:22:30.256Z,16.07
2023-05-13T23:24:58.424Z,16.47
2023-05-13T23:27:26.638Z,15.97
2023-05-13T23:29:54.814Z,15.47
2023-05-13T23:32:22.984Z,15.77
2023-05-13T23:34:52.647Z,16.13
2023-05-13T23:37:21.871Z,15.50
2023-05-13T23:39:50.152Z,14.80
2023-05-13T23:42:18.446Z,15.27
2023-05-13T23:44:46.616Z,15.53
2023-05-13T23:47:14.741Z,16.00
2023-05-13T23:49:42.899Z,15.70
2023-05-13T23:52:12.385Z,15.83
2023-05-13T23:54:40.548Z,15.90
2023-05-13T23:57:08.724Z,15.63
2023-05-13T23:59:36.940Z,14.93
